Time;durP1;ratioP1;P1;durP2;ratioP2;P2;SDS_P1;SDS_P2;PMS_P1;PMS_P2;Temp;Humidity;BMP_temperature;BMP_pressure;BME280_temperature;BME280_humidity;BME280_pressure;Samples;Min_cycle;Max_cycle;Signal;HPM_P1;HPM_P2
2023/05/24 00:01:51;;;;;;;34.30;6.87;;;9.70;1.00;;;;;;5002198;28;20277;-59
2023/05/24 00:04:18;;;;;;;26.80;6.40;;;9.70;1.00;;;;;;5005781;28;20439;-61
2023/05/24 00:06:44;;;;;;;26.87;6.43;;;9.70;1.00;;;;;;5014235;28;20529;-61
2023/05/24 00:09:11;;;;;;;27.63;7.40;;;9.80;1.00;;;;;;5015281;28;20462;-61
2023/05/24 00:11:37;;;;;;;38.50;7.23;;;9.70;1.00;;;;;;5019573;28;20192;-60
2023/05/24 00:14:03;;;;;;;39.67;7.10;;;9.70;1.00;;;;;;5014521;28;20763;-61
2023/05/24 00:16:28;;;;;;;42.80;7.20;;;9.80;1.00;;;;;;5020308;28;20235;-61
2023/05/24 00:18:54;;;;;;;37.10;6.90;;;9.70;1.00;;;;;;5018485;28;20258;-61
2023/05/24 00:21:20;;;;;;;46.20;7.07;;;9.80;1.00;;;;;;4996864;28;20188;-61
2023/05/24 00:23:46;;;;;;;29.10;6.40;;;9.70;1.00;;;;;;5014890;28;20267;-60
2023/05/24 00:26:11;;;;;;;42.73;7.63;;;9.70;1.00;;;;;;5013154;28;20217;-61
2023/05/24 00:28:37;;;;;;;33.73;6.80;;;9.80;1.00;;;;;;5015615;28;20493;-61
2023/05/24 00:31:03;;;;;;;37.70;7.53;;;9.80;1.00;;;;;;5013429;28;20188;-60
2023/05/24 00:33:28;;;;;;;24.00;5.97;;;9.80;1.00;;;;;;5014592;28;20216;-61
2023/05/24 00:35:57;;;;;;;34.60;6.57;;;9.80;1.00;;;;;;5014145;28;20187;-61
2023/05/24 00:38:26;;;;;;;28.23;6.27;;;9.90;1.00;;;;;;5014738;28;20278;-61
2023/05/24 00:40:55;;;;;;;31.40;6.50;;;9.90;1.00;;;;;;5012719;28;20438;-59
2023/05/24 00:43:20;;;;;;;39.67;7.70;;;9.90;1.00;;;;;;5016013;28;20494;-61
2023/05/24 00:45:46;;;;;;;41.10;7.17;;;9.90;1.00;;;;;;5015885;28;20435;-61
2023/05/24 00:48:13;;;;;;;39.93;7.13;;;9.90;1.00;;;;;;5014645;28;20219;-58
2023/05/24 00:50:39;;;;;;;31.20;7.20;;;9.90;1.00;;;;;;5016221;28;20296;-61
2023/05/24 00:53:06;;;;;;;34.73;6.90;;;9.90;1.00;;;;;;5007728;28;20427;-61
2023/05/24 00:55:34;;;;;;;40.33;7.30;;;9.90;1.00;;;;;;5015644;28;20238;-61
2023/05/24 00:58:00;;;;;;;38.87;8.27;;;9.90;1.00;;;;;;5012460;28;20450;-61
2023/05/24 01:00:28;;;;;;;33.70;7.30;;;9.90;1.00;;;;;;5011371;28;20446;-61
2023/05/24 01:02:54;;;;;;;25.50;6.90;;;9.90;1.00;;;;;;5016268;28;20459;-61
2023/05/24 01:05:22;;;;;;;40.50;7.83;;;9.90;1.00;;;;;;5013553;28;20466;-60
2023/05/24 01:08:09;;;;;;;42.27;8.10;;;10.00;1.00;;;;;;5014005;28;20561;-61
2023/05/24 01:10:51;;;;;;;39.97;7.13;;;10.00;1.00;;;;;;5003532;28;20447;-61
2023/05/24 01:13:19;;;;;;;37.47;7.40;;;10.00;1.00;;;;;;5003086;28;20791;-61
2023/05/24 01:15:56;;;;;;;37.13;7.47;;;10.00;1.00;;;;;;5008990;28;21044;-61
2023/05/24 01:18:32;;;;;;;28.17;7.00;;;10.00;1.00;;;;;;5008642;28;20941;-61
2023/05/24 01:21:47;;;;;;;40.03;8.60;;;10.00;1.00;;;;;;5001367;28;20444;-61
2023/05/24 01:24:31;;;;;;;24.03;6.60;;;10.00;1.00;;;;;;4945305;28;20549;-61
2023/05/24 01:27:04;;;;;;;24.40;7.33;;;9.90;1.00;;;;;;4947649;28;20474;-61
2023/05/24 01:29:31;;;;;;;27.33;6.30;;;9.90;1.00;;;;;;4991533;28;20489;-59
2023/05/24 01:38:41;;;;;;;36.33;6.60;;;10.00;3.90;;;;;;5009654;28;21038;-60
2023/05/24 01:41:35;;;;;;;25.67;6.73;;;9.90;9.40;;;;;;5003093;28;21936;-60
2023/05/24 01:44:23;;;;;;;34.40;7.13;;;9.90;17.50;;;;;;4999875;28;20196;-61
2023/05/24 01:47:00;;;;;;;35.80;7.50;;;9.90;27.20;;;;;;5002165;28;20476;-60
2023/05/24 01:49:32;;;;;;;34.03;7.27;;;9.90;36.40;;;;;;5006189;28;20446;-61
2023/05/24 01:52:02;;;;;;;35.77;7.30;;;9.90;46.40;;;;;;5004278;28;20447;-62
2023/05/24 01:54:32;;;;;;;28.87;6.83;;;10.00;52.80;;;;;;4995869;28;20525;-61
2023/05/24 01:56:58;;;;;;;34.83;7.17;;;10.10;52.80;;;;;;5002861;28;20475;-61
2023/05/24 01:59:26;;;;;;;24.33;6.97;;;10.00;60.20;;;;;;4998839;28;20435;-61
2023/05/24 02:01:51;;;;;;;29.00;7.17;;;10.00;84.80;;;;;;4988939;28;20529;-60
2023/05/24 02:04:17;;;;;;;21.07;6.70;;;10.00;94.90;;;;;;5001949;28;20447;-61
2023/05/24 02:06:43;;;;;;;31.83;6.60;;;10.00;99.90;;;;;;5009262;28;20223;-61
2023/05/24 02:09:08;;;;;;;37.07;7.60;;;10.00;99.90;;;;;;5009616;28;20185;-61
2023/05/24 02:11:34;;;;;;;37.20;7.57;;;9.90;99.90;;;;;;5000765;28;20193;-62
2023/05/24 02:13:59;;;;;;;40.83;7.80;;;9.90;99.90;;;;;;5009019;28;20204;-62
2023/05/24 02:16:29;;;;;;;27.83;6.83;;;9.90;99.90;;;;;;5004636;28;20251;-62
2023/05/24 02:18:55;;;;;;;29.73;7.30;;;9.90;99.90;;;;;;5002584;28;20188;-62
2023/05/24 02:21:22;;;;;;;32.77;7.50;;;9.90;99.90;;;;;;5003394;28;20490;-61
2023/05/24 02:23:48;;;;;;;28.87;7.60;;;9.90;99.90;;;;;;5011015;28;20434;-60
2023/05/24 02:26:14;;;;;;;32.50;7.40;;;9.90;99.90;;;;;;5002224;28;20991;-60
2023/05/24 02:28:40;;;;;;;32.67;6.90;;;9.90;99.90;;;;;;5004957;28;21469;-58
2023/05/24 02:31:05;;;;;;;36.10;7.80;;;9.90;99.90;;;;;;5008244;28;20443;-57
2023/05/24 02:33:32;;;;;;;37.30;7.63;;;9.90;99.90;;;;;;5005651;28;20844;-60
2023/05/24 02:35:58;;;;;;;39.67;7.53;;;9.90;99.90;;;;;;5013226;28;20199;-59
2023/05/24 02:38:23;;;;;;;32.47;6.77;;;9.90;99.90;;;;;;5010595;28;20448;-59
2023/05/24 02:40:49;;;;;;;38.03;6.93;;;9.90;99.90;;;;;;5008090;28;20643;-59
2023/05/24 02:43:15;;;;;;;39.53;7.73;;;9.90;99.90;;;;;;5009853;28;20195;-58
2023/05/24 02:45:40;;;;;;;35.33;7.17;;;9.90;99.90;;;;;;5009800;28;20587;-61
2023/05/24 02:48:06;;;;;;;33.00;7.47;;;9.90;99.90;;;;;;5009254;28;20242;-57
2023/05/24 02:50:31;;;;;;;29.83;6.90;;;9.90;99.90;;;;;;5007704;28;20197;-60
2023/05/24 02:52:57;;;;;;;36.17;7.33;;;9.90;99.90;;;;;;5011124;28;20192;-59
2023/05/24 02:55:23;;;;;;;30.03;7.50;;;9.90;99.90;;;;;;5011715;28;20235;-60
2023/05/24 02:57:48;;;;;;;39.47;7.30;;;9.90;1.00;;;;;;5006218;28;20655;-60
2023/05/24 03:00:14;;;;;;;39.03;7.00;;;9.90;1.00;;;;;;5009030;28;20526;-59
2023/05/24 03:02:40;;;;;;;32.70;7.40;;;10.00;1.00;;;;;;5011412;28;20196;-61
2023/05/24 03:05:07;;;;;;;30.90;7.23;;;10.20;99.90;;;;;;5011583;28;20441;-61
2023/05/24 03:07:32;;;;;;;37.47;7.53;;;10.10;99.90;;;;;;5008108;28;20315;-61
2023/05/24 03:09:58;;;;;;;36.47;6.50;;;10.10;99.90;;;;;;5002199;28;20584;-61
2023/05/24 03:12:24;;;;;;;33.63;6.93;;;10.10;99.90;;;;;;5002788;28;20341;-59
2023/05/24 03:14:49;;;;;;;38.13;8.20;;;10.00;99.90;;;;;;5004295;28;20189;-61
2023/05/24 03:17:15;;;;;;;35.53;7.00;;;10.00;1.00;;;;;;5012160;28;20752;-59
2023/05/24 03:19:40;;;;;;;27.53;7.00;;;10.00;1.00;;;;;;5009741;28;20196;-61
2023/05/24 03:22:06;;;;;;;28.77;7.10;;;10.10;1.00;;;;;;5011071;28;20191;-60
2023/05/24 03:24:33;;;;;;;36.53;6.73;;;10.00;1.00;;;;;;5007485;28;20215;-60
2023/05/24 03:26:58;;;;;;;35.07;7.90;;;10.00;1.00;;;;;;5001998;28;20639;-61
2023/05/24 03:29:24;;;;;;;27.80;6.50;;;10.10;1.00;;;;;;5008798;28;20439;-61
2023/05/24 03:31:50;;;;;;;36.53;9.00;;;10.00;1.00;;;;;;5008390;28;20195;-60
2023/05/24 03:34:16;;;;;;;39.67;7.37;;;10.00;1.00;;;;;;5010436;28;20188;-60
2023/05/24 03:36:42;;;;;;;32.73;8.23;;;10.00;1.00;;;;;;5006281;28;20445;-59
2023/05/24 03:39:08;;;;;;;26.43;6.87;;;10.00;1.00;;;;;;5003090;28;20675;-61
2023/05/24 03:41:33;;;;;;;33.77;7.30;;;10.10;1.00;;;;;;5001784;28;20195;-60
2023/05/24 03:43:59;;;;;;;38.07;9.17;;;10.00;99.90;;;;;;5004088;28;20444;-61
2023/05/24 03:46:24;;;;;;;33.33;7.17;;;10.00;99.90;;;;;;5007821;28;20216;-61
2023/05/24 03:48:50;;;;;;;43.97;8.33;;;10.00;99.90;;;;;;5010332;28;20271;-60
2023/05/24 03:51:16;;;;;;;30.03;7.20;;;10.10;99.90;;;;;;5003880;28;20192;-59
2023/05/24 03:53:41;;;;;;;32.97;7.20;;;10.10;99.90;;;;;;5010998;28;20192;-61
2023/05/24 03:56:07;;;;;;;40.07;7.07;;;10.10;99.90;;;;;;5009061;28;20282;-61
2023/05/24 03:58:32;;;;;;;37.20;7.60;;;10.10;99.90;;;;;;5004533;28;20243;-61
2023/05/24 04:00:58;;;;;;;37.80;7.27;;;10.10;99.90;;;;;;5007593;28;20768;-60
2023/05/24 04:03:28;;;;;;;40.63;7.70;;;10.10;1.00;;;;;;5013183;28;20184;-61
2023/05/24 04:05:54;;;;;;;34.90;7.57;;;10.10;1.00;;;;;;5010244;28;20193;-59
2023/05/24 04:08:19;;;;;;;33.83;7.40;;;10.10;1.00;;;;;;5011810;28;20445;-58
2023/05/24 04:10:45;;;;;;;42.13;8.47;;;10.20;99.90;;;;;;5009142;28;20196;-58
2023/05/24 04:13:11;;;;;;;38.80;8.53;;;10.10;99.90;;;;;;5004673;28;21171;-59
2023/05/24 04:15:36;;;;;;;43.77;8.63;;;10.10;1.00;;;;;;5007502;28;20254;-59
2023/05/24 04:18:02;;;;;;;37.00;7.20;;;10.10;1.00;;;;;;5008185;28;20560;-59
2023/05/24 04:20:28;;;;;;;44.83;8.43;;;10.10;99.90;;;;;;5010153;28;20207;-58
2023/05/24 04:22:54;;;;;;;35.50;8.00;;;10.10;67.10;;;;;;5006882;28;20193;-60
2023/05/24 04:25:20;;;;;;;35.00;8.53;;;10.00;1.00;;;;;;5006943;28;20188;-58
2023/05/24 04:27:47;;;;;;;44.30;8.80;;;10.00;1.00;;;;;;5010826;28;21003;-59
2023/05/24 04:30:15;;;;;;;30.97;7.87;;;10.10;99.90;;;;;;5007054;28;20937;-57
2023/05/24 04:32:40;;;;;;;36.90;9.70;;;10.10;99.90;;;;;;5009731;28;20530;-58
2023/05/24 04:35:07;;;;;;;28.40;8.30;;;10.00;1.00;;;;;;5007776;28;20520;-57
2023/05/24 04:37:32;;;;;;;41.87;9.03;;;10.00;1.00;;;;;;5006752;28;20561;-57
2023/05/24 04:39:58;;;;;;;47.77;8.90;;;10.00;1.00;;;;;;5009632;28;20923;-57
2023/05/24 04:42:24;;;;;;;28.93;8.70;;;10.00;1.00;;;;;;5007831;28;20242;-57
2023/05/24 04:44:49;;;;;;;31.07;8.50;;;10.00;1.00;;;;;;5003949;28;20216;-57
2023/05/24 04:47:16;;;;;;;38.20;10.17;;;10.00;6.70;;;;;;5000212;28;20220;-56
2023/05/24 04:49:41;;;;;;;32.37;8.73;;;10.00;18.80;;;;;;5009456;28;20191;-57
2023/05/24 04:52:07;;;;;;;39.13;9.83;;;10.00;30.30;;;;;;5008187;28;20869;-57
2023/05/24 04:54:33;;;;;;;44.57;9.47;;;10.00;48.60;;;;;;5005589;28;20199;-56
2023/05/24 04:56:58;;;;;;;33.23;8.93;;;10.00;79.20;;;;;;5002427;28;20236;-56
2023/05/24 04:59:24;;;;;;;39.87;9.03;;;10.00;73.10;;;;;;5003168;28;20550;-56
2023/05/24 05:01:49;;;;;;;53.20;10.33;;;10.00;21.70;;;;;;5008966;28;20223;-56
2023/05/24 05:04:15;;;;;;;36.70;10.07;;;9.90;99.90;;;;;;5007116;28;20191;-55
2023/05/24 05:06:43;;;;;;;36.17;9.87;;;9.90;99.90;;;;;;5009815;28;21558;-56
2023/05/24 05:09:11;;;;;;;40.33;10.13;;;9.90;99.90;;;;;;5003681;28;20207;-56
2023/05/24 05:11:37;;;;;;;35.90;10.20;;;9.80;99.90;;;;;;5005328;28;20530;-55
2023/05/24 05:14:03;;;;;;;38.40;9.00;;;9.80;99.90;;;;;;5001823;28;20522;-56
2023/05/24 05:16:29;;;;;;;38.33;9.90;;;9.90;99.90;;;;;;5005687;28;20195;-56
2023/05/24 05:18:54;;;;;;;39.53;9.60;;;9.90;99.90;;;;;;5010706;28;20438;-56
2023/05/24 05:21:20;;;;;;;34.03;8.70;;;10.00;99.90;;;;;;5005039;28;20208;-55
2023/05/24 05:23:45;;;;;;;32.43;9.30;;;10.00;99.90;;;;;;5009958;28;20184;-55
2023/05/24 05:26:11;;;;;;;33.93;11.00;;;10.10;99.90;;;;;;5002566;28;20299;-57
2023/05/24 05:28:37;;;;;;;41.40;11.03;;;10.10;99.90;;;;;;5003585;28;20190;-56
2023/05/24 05:31:03;;;;;;;34.83;10.20;;;10.00;99.90;;;;;;5008474;28;20189;-56
2023/05/24 05:33:30;;;;;;;32.97;10.40;;;10.00;99.90;;;;;;5011162;28;20339;-56
2023/05/24 05:35:56;;;;;;;33.67;10.77;;;10.10;99.90;;;;;;5007035;28;20662;-56
2023/05/24 05:38:22;;;;;;;42.43;10.80;;;10.10;99.90;;;;;;5006863;28;20447;-56
2023/05/24 05:40:47;;;;;;;41.07;10.53;;;10.10;99.90;;;;;;5003312;28;20677;-56
2023/05/24 05:43:13;;;;;;;36.47;10.70;;;10.10;99.90;;;;;;5005347;28;20184;-56
2023/05/24 05:45:39;;;;;;;31.40;11.40;;;10.20;99.90;;;;;;5005383;28;20202;-57
2023/05/24 05:48:04;;;;;;;41.00;10.40;;;10.30;99.90;;;;;;5003685;28;20220;-56
2023/05/24 05:50:30;;;;;;;44.57;10.97;;;10.30;99.90;;;;;;5008385;28;20442;-56
2023/05/24 05:52:56;;;;;;;32.23;10.63;;;10.30;99.90;;;;;;5008979;28;20673;-56
2023/05/24 05:55:22;;;;;;;46.33;11.83;;;10.40;99.90;;;;;;5005646;28;20322;-56
2023/05/24 05:57:48;;;;;;;42.73;10.13;;;10.40;99.90;;;;;;5008528;28;20594;-56
2023/05/24 06:00:14;;;;;;;42.43;11.83;;;10.40;99.90;;;;;;5008699;28;20545;-56
2023/05/24 06:02:39;;;;;;;40.53;10.60;;;10.40;99.90;;;;;;5004887;28;20188;-57
2023/05/24 06:05:05;;;;;;;43.67;12.30;;;10.50;99.90;;;;;;5004816;28;20440;-56
2023/05/24 06:07:31;;;;;;;50.73;10.90;;;10.40;99.90;;;;;;5002787;28;20220;-55
2023/05/24 06:09:57;;;;;;;53.20;12.27;;;10.40;99.90;;;;;;5009244;28;20548;-55
2023/05/24 06:12:22;;;;;;;36.00;10.77;;;10.40;99.90;;;;;;5007073;28;20642;-55
2023/05/24 06:14:49;;;;;;;42.97;12.27;;;10.40;99.90;;;;;;5003574;28;20682;-56
2023/05/24 06:17:15;;;;;;;47.70;12.47;;;10.40;99.90;;;;;;5002917;28;20203;-55
2023/05/24 06:19:42;;;;;;;43.97;11.60;;;10.40;99.90;;;;;;5000483;28;20446;-55
2023/05/24 06:22:08;;;;;;;47.30;11.00;;;10.40;99.90;;;;;;5000964;28;20875;-55
2023/05/24 06:24:34;;;;;;;42.47;11.50;;;10.50;99.90;;;;;;5006694;28;20497;-55
2023/05/24 06:26:59;;;;;;;46.27;11.80;;;10.60;99.90;;;;;;5009026;28;20299;-56
2023/05/24 06:29:25;;;;;;;45.50;12.60;;;10.70;99.90;;;;;;5009481;28;20431;-55
2023/05/24 06:31:51;;;;;;;36.77;11.03;;;10.70;99.90;;;;;;5008725;28;20191;-56
2023/05/24 06:34:19;;;;;;;39.07;11.50;;;10.80;99.90;;;;;;5001453;28;20264;-54
2023/05/24 06:36:47;;;;;;;37.83;11.20;;;11.00;99.90;;;;;;5002474;28;20184;-55
2023/05/24 06:39:13;;;;;;;45.93;12.93;;;11.20;99.90;;;;;;5006597;28;20852;-55
2023/05/24 06:41:39;;;;;;;39.13;11.00;;;11.30;99.90;;;;;;5008536;28;20443;-56
2023/05/24 06:44:05;;;;;;;44.80;12.10;;;11.40;99.90;;;;;;5006565;28;20445;-55
2023/05/24 06:46:31;;;;;;;59.33;11.40;;;11.60;99.90;;;;;;5003925;28;20478;-55
2023/05/24 06:48:57;;;;;;;53.83;12.63;;;11.70;99.90;;;;;;5004515;28;20196;-56
2023/05/24 06:51:23;;;;;;;45.57;11.77;;;11.90;99.90;;;;;;5007559;28;20498;-56
2023/05/24 06:53:49;;;;;;;49.57;11.30;;;12.10;96.00;;;;;;5003370;28;20189;-56
2023/05/24 06:56:14;;;;;;;36.83;10.37;;;12.50;87.90;;;;;;5012462;28;20614;-57
2023/05/24 06:58:40;;;;;;;47.83;11.63;;;12.70;1.00;;;;;;5014159;28;20514;-57
2023/05/24 07:01:06;;;;;;;37.33;10.33;;;12.60;1.00;;;;;;5009794;28;20190;-56
2023/05/24 07:03:31;;;;;;;50.40;11.33;;;12.50;99.90;;;;;;5005861;28;20523;-56
2023/05/24 07:05:57;;;;;;;40.37;11.17;;;12.60;99.90;;;;;;5004682;28;20184;-56
2023/05/24 07:08:26;;;;;;;30.37;10.20;;;12.50;99.90;;;;;;4999665;28;20960;-55
2023/05/24 07:10:55;;;;;;;41.80;10.50;;;12.30;99.90;;;;;;5008698;28;20668;-60
2023/05/24 07:13:21;;;;;;;38.90;10.20;;;12.20;1.00;;;;;;5011422;28;20450;-56
2023/05/24 07:15:48;;;;;;;41.07;11.37;;;12.10;1.00;;;;;;5010772;28;20438;-57
2023/05/24 07:18:14;;;;;;;41.17;12.17;;;12.00;1.00;;;;;;5009766;28;20270;-56
2023/05/24 07:20:40;;;;;;;43.20;11.15;;;11.90;99.90;;;;;;5006325;28;20510;-57
2023/05/24 07:23:05;;;;;;;40.27;10.93;;;11.80;99.90;;;;;;5012413;28;20283;-56
2023/05/24 07:25:32;;;;;;;44.23;11.90;;;11.80;99.90;;;;;;5010655;28;20220;-57
2023/05/24 07:27:59;;;;;;;40.70;9.50;;;11.80;83.00;;;;;;5009937;28;20227;-61
2023/05/24 07:30:25;;;;;;;42.47;10.77;;;11.80;52.60;;;;;;5003718;28;21017;-61
2023/05/24 07:32:51;;;;;;;46.17;9.43;;;11.90;1.00;;;;;;5003189;28;20443;-58
2023/05/24 07:35:16;;;;;;;39.70;9.90;;;12.10;6.00;;;;;;5011359;28;20446;-56
2023/05/24 07:37:42;;;;;;;42.30;10.23;;;12.10;99.90;;;;;;5012232;28;20203;-62
2023/05/24 07:40:11;;;;;;;34.00;9.87;;;12.20;1.00;;;;;;5017169;28;20592;-57
2023/05/24 07:42:37;;;;;;;43.40;9.50;;;12.20;99.90;;;;;;5007009;28;20326;-61
2023/05/24 07:45:05;;;;;;;45.27;10.70;;;12.40;99.90;;;;;;5006001;28;20938;-57
2023/05/24 07:47:31;;;;;;;36.47;9.90;;;12.50;99.90;;;;;;5006673;28;20475;-58
2023/05/24 07:49:57;;;;;;;32.63;8.90;;;12.70;96.80;;;;;;5009142;28;20967;-58
2023/05/24 07:52:23;;;;;;;42.03;10.07;;;12.70;1.00;;;;;;5014614;28;20188;-57
2023/05/24 07:54:49;;;;;;;46.67;10.10;;;12.80;1.00;;;;;;5009196;28;20197;-59
2023/05/24 07:57:14;;;;;;;45.73;10.37;;;12.80;1.00;;;;;;5008689;28;20432;-56
2023/05/24 07:59:40;;;;;;;36.13;10.33;;;12.90;1.00;;;;;;5005790;28;24180;-58
2023/05/24 08:02:09;;;;;;;45.67;10.47;;;12.90;1.00;;;;;;5002786;28;20203;-57
2023/05/24 08:04:35;;;;;;;37.50;10.50;;;13.00;1.00;;;;;;5002005;28;20217;-58
2023/05/24 08:07:02;;;;;;;31.90;9.63;;;13.10;1.00;;;;;;5011359;28;20593;-58
2023/05/24 08:09:34;;;;;;;42.43;9.40;;;13.30;1.00;;;;;;5006558;28;20550;-58
2023/05/24 08:12:01;;;;;;;34.30;10.07;;;13.60;1.00;;;;;;5005784;28;20455;-59
2023/05/24 08:14:26;;;;;;;47.57;9.57;;;13.80;99.90;;;;;;5009062;28;20855;-61
2023/05/24 08:16:52;;;;;;;30.13;8.30;;;14.00;99.90;;;;;;5002749;28;20475;-58
2023/05/24 08:19:18;;;;;;;36.17;10.50;;;14.00;99.90;;;;;;5005996;28;20196;-61
2023/05/24 08:21:44;;;;;;;41.10;9.27;;;14.00;99.90;;;;;;5007741;28;20188;-61
2023/05/24 08:24:09;;;;;;;47.83;13.37;;;14.10;99.90;;;;;;5008708;28;20271;-60
2023/05/24 08:26:35;;;;;;;51.80;19.63;;;14.10;99.90;;;;;;5009350;28;20263;-62
2023/05/24 08:29:02;;;;;;;60.27;22.53;;;14.20;99.90;;;;;;5008898;28;20220;-61
2023/05/24 08:31:28;;;;;;;52.40;19.53;;;14.30;99.90;;;;;;5004440;28;20199;-62
2023/05/24 08:33:54;;;;;;;124.20;55.37;;;14.30;99.90;;;;;;5005494;28;20444;-62
2023/05/24 08:36:21;;;;;;;85.80;29.03;;;14.10;82.30;;;;;;5003054;28;20190;-63
2023/05/24 08:38:46;;;;;;;52.03;16.33;;;14.00;98.20;;;;;;5001366;28;20810;-62
2023/05/24 08:41:12;;;;;;;81.50;31.37;;;13.70;86.00;;;;;;5007914;28;20448;-61
2023/05/24 08:43:38;;;;;;;56.57;17.93;;;13.40;99.90;;;;;;5009730;28;20241;-61
2023/05/24 08:46:05;;;;;;;52.93;19.57;;;13.20;99.90;;;;;;5009476;28;20188;-56
2023/05/24 08:48:31;;;;;;;43.93;11.70;;;12.90;99.90;;;;;;5004661;28;20448;-56
2023/05/24 08:50:57;;;;;;;37.90;11.40;;;12.80;99.90;;;;;;5005325;28;20438;-59
2023/05/24 08:53:23;;;;;;;46.23;12.37;;;12.80;99.90;;;;;;5002427;28;20456;-58
2023/05/24 08:55:52;;;;;;;44.73;10.43;;;12.80;99.90;;;;;;5001536;28;20475;-59
2023/05/24 08:58:18;;;;;;;33.37;10.97;;;12.90;1.00;;;;;;5006502;28;20220;-58
2023/05/24 09:00:44;;;;;;;36.70;10.57;;;13.00;1.00;;;;;;5009559;28;20963;-58
2023/05/24 09:03:11;;;;;;;36.53;10.30;;;13.30;1.00;;;;;;5009330;28;20438;-57
2023/05/24 09:05:38;;;;;;;28.63;8.63;;;13.70;1.00;;;;;;5003104;28;20718;-59
2023/05/24 09:08:04;;;;;;;30.07;8.10;;;14.30;1.00;;;;;;4999471;28;20476;-60
2023/05/24 09:10:32;;;;;;;61.90;17.43;;;14.90;99.90;;;;;;5003080;28;20494;-59
2023/05/24 09:13:01;;;;;;;35.47;7.90;;;15.40;99.90;;;;;;5010250;28;20471;-60
2023/05/24 09:15:26;;;;;;;25.40;6.80;;;15.80;1.00;;;;;;5010030;28;20444;-60
2023/05/24 09:17:52;;;;;;;21.93;8.00;;;16.20;1.00;;;;;;5007305;28;20785;-56
2023/05/24 09:20:19;;;;;;;29.83;7.20;;;16.60;1.00;;;;;;5004661;28;20289;-59
2023/05/24 09:22:50;;;;;;;23.90;7.27;;;16.70;1.00;;;;;;5000575;28;20190;-59
2023/05/24 09:25:17;;;;;;;24.40;6.00;;;16.60;1.00;;;;;;5000011;28;20462;-59
2023/05/24 09:27:51;;;;;;;17.23;5.60;;;16.60;1.00;;;;;;5006509;28;21039;-60
2023/05/24 09:30:17;;;;;;;25.53;5.63;;;16.60;1.00;;;;;;5008244;28;20480;-58
2023/05/24 09:33:00;;;;;;;28.37;6.07;;;16.50;1.00;;;;;;5007027;28;20443;-58
2023/05/24 09:35:28;;;;;;;18.80;5.70;;;16.30;1.00;;;;;;5004458;28;20936;-59
2023/05/24 09:38:00;;;;;;;20.63;5.43;;;16.10;1.00;;;;;;5003576;28;20462;-59
2023/05/24 09:40:26;;;;;;;22.83;5.77;;;16.00;1.00;;;;;;4999649;28;20478;-60
2023/05/24 09:43:08;;;;;;;22.33;6.33;;;16.10;1.00;;;;;;5006087;28;20447;-59
2023/05/24 09:45:47;;;;;;;26.10;7.07;;;16.00;1.00;;;;;;5008877;28;21033;-59
2023/05/24 09:48:15;;;;;;;24.17;7.40;;;16.00;1.00;;;;;;5009619;28;20476;-59
2023/05/24 09:50:41;;;;;;;22.53;7.13;;;15.90;1.00;;;;;;5005059;28;20793;-60
2023/05/24 09:53:07;;;;;;;33.03;7.10;;;16.00;1.00;;;;;;5004718;28;20571;-57
2023/05/24 09:55:37;;;;;;;29.03;6.90;;;16.20;1.00;;;;;;5003339;28;20574;-60
2023/05/24 09:58:04;;;;;;;23.57;7.40;;;16.10;1.00;;;;;;5005218;28;20928;-59
2023/05/24 10:00:35;;;;;;;23.60;6.70;;;16.10;1.00;;;;;;5008680;28;20908;-60
2023/05/24 10:03:03;;;;;;;34.60;6.90;;;16.00;1.00;;;;;;5008005;28;20497;-61
2023/05/24 10:05:29;;;;;;;25.60;7.00;;;16.00;1.00;;;;;;5007172;28;20453;-62
2023/05/24 10:07:57;;;;;;;26.73;7.87;;;16.00;1.00;;;;;;5001569;28;20524;-61
2023/05/24 10:10:28;;;;;;;25.23;7.07;;;16.20;1.00;;;;;;5001617;28;20757;-60
2023/05/24 10:12:55;;;;;;;21.83;6.00;;;16.30;1.00;;;;;;5000761;28;20446;-62
2023/05/24 10:15:21;;;;;;;22.13;6.67;;;16.50;1.00;;;;;;5003848;28;20788;-63
2023/05/24 10:17:46;;;;;;;22.33;6.03;;;16.60;1.00;;;;;;5010108;28;20440;-60
2023/05/24 10:20:12;;;;;;;12.33;5.07;;;16.80;1.00;;;;;;5007077;28;20188;-63
2023/05/24 10:22:44;;;;;;;33.13;6.10;;;16.60;1.00;;;;;;5009808;28;20193;-62
2023/05/24 10:25:16;;;;;;;17.50;5.27;;;16.50;1.00;;;;;;5004530;28;20673;-60
2023/05/24 10:27:44;;;;;;;20.33;5.77;;;16.30;1.00;;;;;;5002818;28;20480;-61
2023/05/24 10:30:18;;;;;;;20.53;6.07;;;16.00;1.00;;;;;;5007557;28;21070;-63
2023/05/24 10:32:44;;;;;;;16.53;5.37;;;15.80;1.00;;;;;;5013863;28;20467;-62
2023/05/24 10:35:13;;;;;;;17.40;4.97;;;15.60;1.00;;;;;;5009646;28;20476;-62
2023/05/24 10:37:40;;;;;;;19.50;4.80;;;15.50;1.00;;;;;;5009571;28;20591;-59
2023/05/24 10:40:08;;;;;;;17.70;5.03;;;15.60;1.00;;;;;;5004898;28;20469;-61
2023/05/24 10:42:34;;;;;;;16.23;5.60;;;15.60;1.00;;;;;;5004819;28;20443;-62
2023/05/24 10:45:24;;;;;;;17.73;5.33;;;15.80;1.00;;;;;;5003832;28;20506;-61
2023/05/24 10:47:50;;;;;;;16.33;4.77;;;15.90;1.00;;;;;;5012066;28;20476;-62
2023/05/24 10:50:17;;;;;;;13.03;4.73;;;16.20;1.00;;;;;;5012876;28;20438;-61
2023/05/24 10:52:43;;;;;;;16.90;4.37;;;16.70;1.00;;;;;;5010999;28;20456;-61
2023/05/24 10:55:10;;;;;;;9.13;4.07;;;16.90;1.00;;;;;;5007381;28;20481;-63
2023/05/24 10:57:38;;;;;;;11.53;4.23;;;17.20;1.00;;;;;;5004520;28;20268;-62
2023/05/24 11:00:19;;;;;;;11.40;4.00;;;17.50;1.00;;;;;;5005575;28;20455;-62
2023/05/24 11:02:48;;;;;;;12.50;4.90;;;17.90;1.00;;;;;;5006962;28;20452;-62
2023/05/24 11:05:15;;;;;;;13.27;4.40;;;18.10;1.00;;;;;;5012654;28;20535;-63
2023/05/24 11:07:41;;;;;;;10.93;4.00;;;18.40;1.00;;;;;;5009753;28;20476;-61
2023/05/24 11:10:15;;;;;;;13.10;4.63;;;18.70;1.00;;;;;;5006992;28;20469;-62
2023/05/24 11:12:43;;;;;;;12.70;4.73;;;18.80;1.00;;;;;;5003402;28;20445;-63
2023/05/24 11:15:10;;;;;;;10.33;4.43;;;19.00;1.00;;;;;;5011026;28;20457;-61
2023/05/24 11:18:07;;;;;;;12.43;3.93;;;19.30;1.00;;;;;;5013069;28;20503;-62
2023/05/24 11:20:34;;;;;;;12.20;4.63;;;19.50;1.00;;;;;;4981372;28;20974;-62
2023/05/24 11:23:05;;;;;;;12.47;4.30;;;19.70;1.00;;;;;;5008684;28;20443;-63
2023/05/24 11:25:32;;;;;;;13.40;4.80;;;19.80;1.00;;;;;;5004097;28;20538;-62
2023/05/24 11:28:00;;;;;;;16.57;5.60;;;20.00;1.00;;;;;;5003799;28;20500;-62
2023/05/24 11:30:25;;;;;;;19.97;5.60;;;20.10;1.00;;;;;;5003570;28;20442;-62
2023/05/24 11:32:51;;;;;;;15.27;5.53;;;19.90;1.00;;;;;;5009082;28;20855;-62
2023/05/24 11:35:18;;;;;;;11.37;5.10;;;19.50;1.00;;;;;;5015206;28;20187;-58
2023/05/24 11:37:44;;;;;;;12.63;5.70;;;18.90;1.00;;;;;;5007905;28;20192;-60
2023/05/24 11:40:10;;;;;;;15.30;5.20;;;18.30;1.00;;;;;;5008116;28;20437;-62
2023/05/24 11:42:38;;;;;;;12.80;5.47;;;17.60;1.00;;;;;;5009781;28;20195;-61
2023/05/24 11:45:07;;;;;;;13.67;5.17;;;17.00;1.00;;;;;;5007023;28;20850;-62
2023/05/24 11:47:39;;;;;;;21.03;6.33;;;16.60;1.00;;;;;;5003154;28;20513;-61
2023/05/24 11:50:06;;;;;;;19.73;6.00;;;16.30;1.00;;;;;;5006295;28;20441;-61
2023/05/24 11:52:32;;;;;;;17.27;5.33;;;16.10;1.00;;;;;;5005890;28;20438;-62
2023/05/24 11:54:57;;;;;;;21.67;6.23;;;16.30;1.00;;;;;;5001173;28;20446;-63
2023/05/24 11:57:34;;;;;;;19.93;5.80;;;16.30;1.00;;;;;;5007263;28;20646;-63
2023/05/24 12:00:00;;;;;;;16.90;5.47;;;16.30;1.00;;;;;;5011215;28;20186;-63
2023/05/24 12:02:29;;;;;;;16.33;5.93;;;16.40;1.00;;;;;;5017487;28;20441;-63
2023/05/24 12:05:04;;;;;;;21.70;6.07;;;16.50;1.00;;;;;;5008689;28;20183;-60
2023/05/24 12:07:30;;;;;;;18.90;6.50;;;16.50;1.00;;;;;;5006380;28;20602;-62
2023/05/24 12:09:55;;;;;;;17.70;5.83;;;16.70;1.00;;;;;;5005205;28;20450;-62
2023/05/24 12:12:21;;;;;;;19.20;5.87;;;16.80;1.00;;;;;;5006423;28;20553;-62
2023/05/24 12:14:47;;;;;;;21.77;5.80;;;16.90;1.00;;;;;;5010704;28;20195;-62
2023/05/24 12:17:16;;;;;;;23.23;6.20;;;17.00;1.00;;;;;;5008592;28;20257;-62
2023/05/24 12:19:42;;;;;;;26.50;6.33;;;17.10;1.00;;;;;;5007367;28;20543;-62
2023/05/24 12:22:09;;;;;;;25.33;6.43;;;17.10;1.00;;;;;;5007982;28;20442;-62
2023/05/24 12:24:36;;;;;;;15.97;5.43;;;17.00;1.00;;;;;;5015139;28;20480;-62
2023/05/24 12:27:07;;;;;;;15.40;5.70;;;16.90;1.00;;;;;;5004179;28;21022;-62
2023/05/24 12:29:41;;;;;;;16.53;6.17;;;16.70;1.00;;;;;;5006449;28;20454;-62
2023/05/24 12:32:11;;;;;;;25.00;6.60;;;16.70;1.00;;;;;;5006252;28;20456;-61
2023/05/24 12:34:39;;;;;;;16.20;6.73;;;16.50;1.00;;;;;;5007009;28;20439;-61
2023/05/24 12:37:06;;;;;;;19.73;6.20;;;16.30;1.00;;;;;;5003344;28;20446;-62
2023/05/24 12:39:35;;;;;;;17.13;6.00;;;16.20;1.00;;;;;;5004672;28;20433;-59
2023/05/24 12:42:02;;;;;;;18.40;6.30;;;16.10;1.00;;;;;;4991526;28;20524;-60
2023/05/24 12:44:35;;;;;;;18.23;7.00;;;16.30;1.00;;;;;;5004805;28;20522;-61
2023/05/24 12:47:03;;;;;;;13.13;6.20;;;16.40;1.00;;;;;;5007729;28;20492;-61
2023/05/24 12:49:30;;;;;;;20.70;7.50;;;16.70;1.00;;;;;;5005295;28;20817;-62